This is the latest recevied weather packets stored in our database for station/object OZ7MKS. If no packets are shown the sender has not sent any weather packets the latest 10 day(s).
| Time | Temp. | Humidity | Pressure | Rain* | Wind** | Luminosity | Snow |
|---|---|---|---|---|---|---|---|
| 1778308504 | 11.67° C | 75% | 1024 hPa | 0 mm | - | - | - |
| 1778306105 | 10° C | 75% | 1024 hPa | 0 mm | - | - | - |
| 1778304604 | 8.89° C | 77% | 1023.9 hPa | 0 mm | - | - | - |
| 1778304004 | 8.33° C | 77% | 1023.9 hPa | 0 mm | - | - | - |
| 1778301304 | 6.11° C | 79% | 1023.9 hPa | 0 mm | - | - | - |
| 1778301004 | 6.11° C | 79% | 1023.9 hPa | 0 mm | - | - | - |
| 1778299204 | 5° C | 82% | 1024 hPa | 0 mm | - | - | - |
| 1778295003 | 4.44° C | 83% | 1024.3 hPa | 0 mm | - | - | - |
| 1778293803 | 4.44° C | 83% | 1024.2 hPa | 0 mm | - | - | - |
| 1778290803 | 3.89° C | 84% | 1024.4 hPa | 0 mm | - | - | - |
| 1778284504 | 7.22° C | 79% | 1024.2 hPa | 0 mm | - | - | - |
| 1778283604 | 7.22° C | 77% | 1024.2 hPa | 0 mm | - | - | - |
| 1778281204 | 6.67° C | 80% | 1024.2 hPa | 0 mm | - | - | - |
| 1778280004 | 6.67° C | 82% | 1024.3 hPa | 0 mm | - | - | - |
| 1778279704 | 7.22° C | 81% | 1024.3 hPa | 0 mm | - | - | - |
| 1778277304 | 8.89° C | 78% | 1024.1 hPa | 0 mm | - | - | - |
| 1778277004 | 8.89° C | 77% | 1024 hPa | 0 mm | - | - | - |
| 1778269803 | 9.44° C | 83% | 1023.2 hPa | 0 mm | - | - | - |
| 1778266503 | 11.67° C | 79% | 1022.7 hPa | 0 mm | - | - | - |
| 1778266204 | 11.67° C | 80% | 1022.6 hPa | 0 mm | - | - | - |
| 1778265904 | 11.67° C | 79% | 1022.6 hPa | 0 mm | - | - | - |
| 1778265303 | 12.22° C | 79% | 1022.5 hPa | 0 mm | - | - | - |
| 1778264404 | 12.78° C | 79% | 1022.3 hPa | 0 mm | - | - | - |
| 1778264104 | 12.78° C | 79% | 1022.3 hPa | 0 mm | - | - | - |
| 1778261703 | 13.89° C | 77% | 1022 hPa | 0 mm | - | - | - |
* Rain latest hour (hover to see other rain measurements)
** Current wind speed in m/s (hover to see current wind gust speed)